ENKB

Kristiansund , Kvernberget Airport

Kvernberget, Norway
METAR ENKB 202020Z 26008KT 9999 FEW032 BKN045 11/06 Q1016 RMK WIND 745FT 28015KT
Observed Flight Rules
Aug-20 @ 20:20 UTC (10 minutes ago) Visual Flight Rules
Wind Visibility Clouds
260° at 8 knots 10,000+ meters
  • Few at 3,200' AGL
  • Broken at 4,500' AGL
Temperatures Readings
Current 11°C / 52°F
Dewpoint 6°C / 43°F
Humidity 72%
Altimeter 30" Hg
Pressure 1016 hPa
Elevation 62
METAR ENKB 202020Z 26008KT 9999 FEW032 BKN045 11/06 Q1016 RMK WIND 745FT 28015KT
Observed Flight Rules
Aug-20 @ 20:20 UTC
(10 minutes ago)
VFR
Wind Visibility
260° at 8 knots 10,000+ meters
Clouds
  • Few at 3,200' AGL
  • Broken at 4,500' AGL
Temperature Dewpoint
11°C / 52°F 6°C / 43°F
Humidity Altimeter Pressure
72% 30" Hg 1016 hPa